createdAt,value
2022-10-31T00:01:41.032Z,98.42
2022-10-31T00:04:09.721Z,98.38
2022-10-31T00:06:38.223Z,98.40
2022-10-31T00:09:07.461Z,98.49
2022-10-31T00:11:37.532Z,98.42
2022-10-31T00:14:06.256Z,98.27
2022-10-31T00:16:35.110Z,98.46
2022-10-31T00:19:06.712Z,98.13
2022-10-31T00:21:36.290Z,98.35
2022-10-31T00:24:04.789Z,97.90
2022-10-31T00:26:33.876Z,97.97
2022-10-31T00:29:03.955Z,98.22
2022-10-31T00:31:32.620Z,98.23
2022-10-31T00:34:04.088Z,97.87
2022-10-31T00:36:32.670Z,97.90
2022-10-31T00:39:02.582Z,98.08
2022-10-31T00:41:31.552Z,98.07
2022-10-31T00:44:00.216Z,97.89
2022-10-31T00:46:30.213Z,97.88
2022-10-31T00:48:59.139Z,97.83
2022-10-31T00:51:27.683Z,97.87
2022-10-31T00:53:56.483Z,97.89
2022-10-31T00:56:25.116Z,97.83
2022-10-31T00:58:54.494Z,97.80
2022-10-31T01:01:23.422Z,97.89
2022-10-31T01:03:54.321Z,97.98
2022-10-31T01:06:23.148Z,97.90
2022-10-31T01:08:51.777Z,97.83
2022-10-31T01:11:23.002Z,98.02
2022-10-31T01:13:54.655Z,98.02
2022-10-31T01:16:25.844Z,97.93
2022-10-31T01:18:55.945Z,97.88
2022-10-31T01:21:27.074Z,98.04
2022-10-31T01:23:59.815Z,98.08
2022-10-31T01:26:30.306Z,98.13
2022-10-31T01:29:01.236Z,98.16
2022-10-31T01:31:32.599Z,98.06
2022-10-31T01:34:02.753Z,98.18
2022-10-31T01:36:34.181Z,98.22
2022-10-31T01:39:06.814Z,98.19
2022-10-31T01:41:39.034Z,98.16
2022-10-31T01:44:33.477Z,98.33
2022-10-31T01:47:06.944Z,98.34
2022-10-31T01:49:42.278Z,98.12
2022-10-31T01:52:17.186Z,98.13
2022-10-31T01:54:51.666Z,98.03
2022-10-31T01:57:23.079Z,98.17
2022-10-31T02:00:00.078Z,98.35
2022-10-31T02:02:32.180Z,98.24
2022-10-31T02:05:06.865Z,98.55
2022-10-31T02:07:40.799Z,98.34
2022-10-31T02:10:09.884Z,98.49
2022-10-31T02:12:38.916Z,98.52
2022-10-31T02:15:09.197Z,98.20
2022-10-31T02:17:37.927Z,98.45
2022-10-31T02:20:17.605Z,98.30
2022-10-31T02:23:13.278Z,98.38
2022-10-31T02:26:05.488Z,98.47
2022-10-31T02:28:54.768Z,98.48
2022-10-31T02:31:37.324Z,98.47
2022-10-31T02:34:17.916Z,98.61
2022-10-31T02:36:58.704Z,98.24
2022-10-31T02:39:31.619Z,98.39
2022-10-31T02:42:10.923Z,98.19
2022-10-31T02:44:43.157Z,98.59
2022-10-31T02:47:16.915Z,98.37
2022-10-31T02:49:50.885Z,98.48
2022-10-31T02:52:20.945Z,98.43
2022-10-31T02:54:50.465Z,98.42
2022-10-31T02:57:21.707Z,98.40
2022-10-31T02:59:55.543Z,98.36
2022-10-31T03:03:00.219Z,98.33
2022-10-31T03:05:43.817Z,98.71
2022-10-31T03:08:24.180Z,98.54
2022-10-31T03:10:55.920Z,98.57
2022-10-31T03:13:36.949Z,98.53
2022-10-31T03:16:14.790Z,98.55
2022-10-31T03:18:52.989Z,98.66
2022-10-31T03:21:27.524Z,98.64
2022-10-31T03:23:59.590Z,98.59
2022-10-31T03:26:28.605Z,98.70
2022-10-31T03:29:02.589Z,98.83
2022-10-31T03:31:36.020Z,98.78
2022-10-31T03:34:06.086Z,98.74
2022-10-31T03:36:41.006Z,98.68
2022-10-31T03:39:15.377Z,98.86
2022-10-31T03:41:49.667Z,98.73
2022-10-31T03:44:21.920Z,98.71
2022-10-31T03:46:59.490Z,98.57
2022-10-31T03:49:28.996Z,98.70
2022-10-31T03:52:10.138Z,98.48
2022-10-31T03:54:44.878Z,98.60
2022-10-31T03:57:21.827Z,98.56
2022-10-31T03:59:56.228Z,98.54
2022-10-31T04:02:30.921Z,98.38
2022-10-31T04:05:01.495Z,98.58
2022-10-31T04:07:39.528Z,98.41
2022-10-31T04:10:15.828Z,98.54
2022-10-31T04:12:50.767Z,98.35
2022-10-31T04:15:28.336Z,98.76
2022-10-31T04:18:02.199Z,98.53
2022-10-31T04:20:32.985Z,98.92
2022-10-31T04:23:03.588Z,98.47
2022-10-31T04:25:34.062Z,98.46
2022-10-31T04:28:03.424Z,98.55
2022-10-31T04:30:32.555Z,98.50
2022-10-31T04:33:01.607Z,98.51
2022-10-31T04:35:31.036Z,98.48
2022-10-31T04:37:59.656Z,98.66
2022-10-31T04:40:29.676Z,98.51
2022-10-31T04:43:21.553Z,98.67
2022-10-31T04:45:50.907Z,98.46
2022-10-31T04:48:19.587Z,98.64
2022-10-31T04:50:48.246Z,98.49
2022-10-31T04:53:17.289Z,98.41
2022-10-31T04:56:00.186Z,98.34
2022-10-31T04:58:36.025Z,98.19
2022-10-31T05:01:06.850Z,98.30
2022-10-31T05:03:36.216Z,97.99
2022-10-31T05:06:06.628Z,98.51
2022-10-31T05:08:35.226Z,98.38
2022-10-31T05:11:08.538Z,98.28
2022-10-31T05:13:37.226Z,98.33
2022-10-31T05:16:32.038Z,98.27
2022-10-31T05:19:10.780Z,98.27
2022-10-31T05:21:50.359Z,98.46
2022-10-31T05:24:18.988Z,98.62
2022-10-31T05:26:51.889Z,98.59
2022-10-31T05:29:20.496Z,98.49
2022-10-31T05:31:49.895Z,98.43
2022-10-31T05:34:38.607Z,98.64
2022-10-31T05:37:21.586Z,98.20
2022-10-31T05:39:50.394Z,98.62
2022-10-31T05:42:21.296Z,98.60
2022-10-31T05:44:50.467Z,98.42
2022-10-31T05:47:33.119Z,98.65
2022-10-31T05:50:12.918Z,98.57
2022-10-31T05:52:49.649Z,98.67
2022-10-31T05:55:33.349Z,98.60
2022-10-31T05:58:11.871Z,98.64
2022-10-31T06:00:43.329Z,98.59
2022-10-31T06:03:13.504Z,98.69
2022-10-31T06:06:02.060Z,98.59
2022-10-31T06:08:38.357Z,98.75
2022-10-31T06:11:10.687Z,98.67
2022-10-31T06:13:51.831Z,98.74
2022-10-31T06:16:26.127Z,98.60
2022-10-31T06:18:57.944Z,98.65
2022-10-31T06:21:26.609Z,98.73
2022-10-31T06:23:55.167Z,98.54
2022-10-31T06:26:44.499Z,98.66
2022-10-31T06:29:14.627Z,98.46
2022-10-31T06:32:06.390Z,98.65
2022-10-31T06:34:40.968Z,98.46
2022-10-31T06:37:10.809Z,98.08
2022-10-31T06:39:41.361Z,98.11
2022-10-31T06:42:12.712Z,98.23
2022-10-31T06:44:43.090Z,98.19
2022-10-31T06:47:22.705Z,98.28
2022-10-31T06:49:58.983Z,98.29
2022-10-31T06:52:28.537Z,98.48
2022-10-31T06:54:58.366Z,98.17
2022-10-31T06:57:27.473Z,98.30
2022-10-31T06:59:58.932Z,98.28
2022-10-31T07:02:38.149Z,98.39
2022-10-31T07:05:08.418Z,98.31
2022-10-31T07:07:37.008Z,98.14
2022-10-31T07:10:06.203Z,98.06
2022-10-31T07:12:46.547Z,98.28
2022-10-31T07:15:17.210Z,98.18
2022-10-31T07:17:46.075Z,98.12
2022-10-31T07:20:14.651Z,98.17
2022-10-31T07:22:59.183Z,98.12
2022-10-31T07:25:29.462Z,98.46
2022-10-31T07:28:21.129Z,98.13
2022-10-31T07:30:54.851Z,97.78
2022-10-31T07:33:24.489Z,97.89
2022-10-31T07:36:04.025Z,97.90
2022-10-31T07:38:35.111Z,97.97
2022-10-31T07:41:06.787Z,97.82
2022-10-31T07:43:41.021Z,97.53
2022-10-31T07:46:13.727Z,98.05
2022-10-31T07:49:05.760Z,97.66
2022-10-31T07:51:46.551Z,97.69
2022-10-31T07:54:21.608Z,97.68
2022-10-31T07:56:50.219Z,97.49
2022-10-31T07:59:18.660Z,97.45
2022-10-31T08:01:48.641Z,97.60
2022-10-31T08:04:28.322Z,97.41
2022-10-31T08:07:07.621Z,97.42
2022-10-31T08:09:39.522Z,97.33
2022-10-31T08:12:20.010Z,97.41
2022-10-31T08:14:49.011Z,97.41
2022-10-31T08:17:21.841Z,97.22
2022-10-31T08:20:01.991Z,97.26
2022-10-31T08:22:37.603Z,97.06
2022-10-31T08:25:10.713Z,96.94
2022-10-31T08:27:39.560Z,96.87
2022-10-31T08:30:09.613Z,97.02
2022-10-31T08:32:41.871Z,96.69
2022-10-31T08:35:21.028Z,96.77
2022-10-31T08:38:11.330Z,96.57
2022-10-31T08:40:40.387Z,96.85
2022-10-31T08:43:15.786Z,96.79
2022-10-31T08:45:45.032Z,96.43
2022-10-31T08:48:21.879Z,96.54
2022-10-31T08:50:50.232Z,96.23
2022-10-31T08:53:19.593Z,96.38
2022-10-31T08:55:57.231Z,96.01
2022-10-31T08:58:27.613Z,96.05
2022-10-31T09:01:02.213Z,96.04
2022-10-31T09:03:33.124Z,95.99
2022-10-31T09:06:03.936Z,95.85
2022-10-31T09:08:33.313Z,96.10
2022-10-31T09:11:03.576Z,95.56
2022-10-31T09:13:54.937Z,95.49
2022-10-31T09:16:29.171Z,95.63
2022-10-31T09:18:59.381Z,95.45
2022-10-31T09:21:27.719Z,95.16
2022-10-31T09:23:56.087Z,95.14
2022-10-31T09:26:24.301Z,95.08
2022-10-31T09:29:03.565Z,95.27
2022-10-31T09:31:33.284Z,95.14
2022-10-31T09:34:08.623Z,95.20
2022-10-31T09:36:40.047Z,95.32
2022-10-31T09:39:12.800Z,95.43
2022-10-31T09:41:54.613Z,95.38
2022-10-31T09:44:34.471Z,95.31
2022-10-31T09:47:07.094Z,95.36
2022-10-31T09:49:54.430Z,95.28
2022-10-31T09:52:25.639Z,95.56
2022-10-31T09:54:57.460Z,95.60
2022-10-31T09:57:27.970Z,95.61
2022-10-31T09:59:56.923Z,95.29
2022-10-31T10:02:27.963Z,95.33
2022-10-31T10:05:00.309Z,95.56
2022-10-31T10:07:35.273Z,95.23
2022-10-31T10:10:18.499Z,95.29
2022-10-31T10:13:11.200Z,95.29
2022-10-31T10:15:49.180Z,95.22
2022-10-31T10:18:23.506Z,95.28
2022-10-31T10:20:59.850Z,95.15
2022-10-31T10:23:36.860Z,95.33
2022-10-31T10:26:11.264Z,95.02
2022-10-31T10:28:42.880Z,95.28
2022-10-31T10:31:12.939Z,95.10
2022-10-31T10:33:43.512Z,95.36
2022-10-31T10:36:16.773Z,95.06
2022-10-31T10:38:52.733Z,95.09
2022-10-31T10:41:22.111Z,94.90
2022-10-31T10:43:50.610Z,94.72
2022-10-31T10:46:30.254Z,94.83
2022-10-31T10:49:01.704Z,94.65
2022-10-31T10:54:35.116Z,94.62
2022-10-31T10:57:12.814Z,94.81
2022-10-31T10:59:41.045Z,94.71
2022-10-31T11:02:18.287Z,94.56
2022-10-31T11:04:48.696Z,94.33
2022-10-31T11:07:18.505Z,94.19
2022-10-31T11:09:47.709Z,94.14
2022-10-31T11:12:21.957Z,94.15
2022-10-31T11:14:52.927Z,93.91
2022-10-31T11:17:30.440Z,93.88
2022-10-31T11:20:02.510Z,93.90
2022-10-31T11:22:32.432Z,93.77
2022-10-31T11:25:00.720Z,93.74
2022-10-31T11:27:29.009Z,93.78
2022-10-31T11:30:06.766Z,93.60
2022-10-31T11:32:35.630Z,93.57
2022-10-31T11:35:06.129Z,93.52
2022-10-31T11:37:38.006Z,93.37
2022-10-31T11:40:07.968Z,93.11
2022-10-31T11:42:39.339Z,93.16
2022-10-31T11:45:09.829Z,93.22
2022-10-31T11:47:38.036Z,93.19
2022-10-31T11:50:11.746Z,93.20
2022-10-31T11:52:42.368Z,92.94
2022-10-31T11:55:18.285Z,92.85
2022-10-31T11:57:47.760Z,92.89
2022-10-31T12:00:23.931Z,92.77
2022-10-31T12:02:52.387Z,92.99
2022-10-31T12:05:22.498Z,92.98
2022-10-31T12:07:52.433Z,92.79
2022-10-31T12:10:24.140Z,92.82
2022-10-31T12:13:00.292Z,92.94
2022-10-31T12:15:31.998Z,92.95
2022-10-31T12:18:08.639Z,92.64
2022-10-31T12:20:44.099Z,92.63
2022-10-31T12:23:19.668Z,92.61
2022-10-31T12:25:53.066Z,92.62
2022-10-31T12:28:46.417Z,92.61
2022-10-31T12:31:25.452Z,92.81
2022-10-31T12:34:00.239Z,92.63
2022-10-31T12:36:39.843Z,92.71
2022-10-31T12:39:23.601Z,92.61
2022-10-31T12:41:55.651Z,92.82
2022-10-31T12:44:39.019Z,92.83
2022-10-31T12:47:18.108Z,92.71
2022-10-31T12:49:52.909Z,92.80
2022-10-31T12:52:32.511Z,92.89
2022-10-31T12:55:07.765Z,92.83
2022-10-31T12:57:38.701Z,92.49
2022-10-31T13:00:13.278Z,92.67
2022-10-31T13:02:44.244Z,92.17
2022-10-31T13:05:16.579Z,92.48
2022-10-31T13:07:47.127Z,92.62
2022-10-31T13:10:19.150Z,92.31
2022-10-31T13:12:51.560Z,92.69
2022-10-31T13:15:21.596Z,92.49
2022-10-31T13:17:51.384Z,92.52
2022-10-31T13:20:23.330Z,92.30
2022-10-31T13:22:54.292Z,92.12
2022-10-31T13:25:25.744Z,92.55
2022-10-31T13:27:59.464Z,92.16
2022-10-31T13:30:30.184Z,92.76
2022-10-31T13:33:08.849Z,92.38
2022-10-31T13:35:43.499Z,92.50
2022-10-31T13:38:17.834Z,92.15
2022-10-31T13:40:51.370Z,92.24
2022-10-31T13:43:30.691Z,92.44
2022-10-31T13:46:00.717Z,92.68
2022-10-31T13:48:39.987Z,92.74
2022-10-31T13:51:09.391Z,92.36
2022-10-31T13:53:38.781Z,92.41
2022-10-31T13:56:16.143Z,92.51
2022-10-31T13:58:56.709Z,92.62
2022-10-31T14:01:26.695Z,92.82
2022-10-31T14:04:11.016Z,92.78
2022-10-31T14:06:44.918Z,92.50
2022-10-31T14:09:25.491Z,92.99
2022-10-31T14:11:54.567Z,92.77
2022-10-31T14:14:24.773Z,93.09
2022-10-31T14:16:58.609Z,92.94
2022-10-31T14:19:27.192Z,92.78
2022-10-31T14:21:55.451Z,92.67
2022-10-31T14:24:34.483Z,92.74
2022-10-31T14:27:23.290Z,92.76
2022-10-31T14:29:51.785Z,92.91
2022-10-31T14:32:23.715Z,92.42
2022-10-31T14:34:56.469Z,92.34
2022-10-31T14:37:37.689Z,92.45
2022-10-31T14:40:17.039Z,92.21
2022-10-31T14:42:56.561Z,92.42
2022-10-31T14:45:29.680Z,92.55
2022-10-31T14:48:08.520Z,92.20
2022-10-31T14:50:44.132Z,92.26
2022-10-31T14:53:15.611Z,92.15
2022-10-31T14:55:48.232Z,92.33
2022-10-31T14:58:19.950Z,92.17
2022-10-31T15:00:48.387Z,92.15
2022-10-31T15:03:19.549Z,92.50
2022-10-31T15:05:50.390Z,92.00
2022-10-31T15:08:32.253Z,92.47
2022-10-31T15:11:00.663Z,92.43
2022-10-31T15:13:29.123Z,92.36
2022-10-31T15:15:58.323Z,92.30
2022-10-31T15:18:29.251Z,92.28
2022-10-31T15:20:59.280Z,92.43
2022-10-31T15:23:28.864Z,92.29
2022-10-31T15:26:03.442Z,92.30
2022-10-31T15:28:33.072Z,92.39
2022-10-31T15:31:01.994Z,92.33
2022-10-31T15:33:38.263Z,92.48
2022-10-31T15:36:08.726Z,92.52
2022-10-31T15:38:37.096Z,92.71
2022-10-31T15:41:07.484Z,92.87
2022-10-31T15:43:37.962Z,92.62
2022-10-31T15:46:09.771Z,92.77
2022-10-31T15:48:41.751Z,92.77
2022-10-31T15:51:10.145Z,92.90
2022-10-31T15:53:40.706Z,92.98
2022-10-31T15:56:11.212Z,93.15
2022-10-31T15:58:44.132Z,93.24
2022-10-31T16:01:22.831Z,93.08
2022-10-31T16:04:02.249Z,93.39
2022-10-31T16:06:32.724Z,93.54
2022-10-31T16:09:01.104Z,93.41
2022-10-31T16:11:34.324Z,93.46
2022-10-31T16:14:04.662Z,93.79
2022-10-31T16:16:36.017Z,93.60
2022-10-31T16:19:06.292Z,93.85
2022-10-31T16:21:37.802Z,93.72
2022-10-31T16:24:14.217Z,94.10
2022-10-31T16:26:42.852Z,94.11
2022-10-31T16:29:27.596Z,94.16
2022-10-31T16:31:56.454Z,94.26
2022-10-31T16:34:26.909Z,94.34
2022-10-31T16:36:57.294Z,94.34
2022-10-31T16:39:25.575Z,94.46
2022-10-31T16:41:55.144Z,94.53
2022-10-31T16:44:25.072Z,94.41
2022-10-31T16:47:10.387Z,94.33
2022-10-31T16:49:38.705Z,94.55
2022-10-31T16:52:08.447Z,94.85
2022-10-31T16:54:36.666Z,94.82
2022-10-31T16:57:06.290Z,94.81
2022-10-31T16:59:35.198Z,94.85
2022-10-31T17:02:04.385Z,94.70
2022-10-31T17:04:32.813Z,94.91
2022-10-31T17:07:01.172Z,94.95
2022-10-31T17:09:31.021Z,94.97
2022-10-31T17:11:59.875Z,94.67
2022-10-31T17:14:28.277Z,94.80
2022-10-31T17:16:59.460Z,94.76
2022-10-31T17:19:28.000Z,94.82
2022-10-31T17:21:56.434Z,95.27
2022-10-31T17:24:25.200Z,95.16
2022-10-31T17:26:54.968Z,95.30
2022-10-31T17:29:23.351Z,95.29
2022-10-31T17:31:51.634Z,95.16
2022-10-31T17:34:20.419Z,95.11
2022-10-31T17:36:51.497Z,95.10
2022-10-31T17:39:20.246Z,95.17
2022-10-31T17:41:52.797Z,95.29
2022-10-31T17:44:22.848Z,95.24
2022-10-31T17:46:51.609Z,95.21
2022-10-31T17:49:20.795Z,95.40
2022-10-31T17:51:49.168Z,95.09
2022-10-31T17:54:19.177Z,95.33
2022-10-31T17:56:47.510Z,95.12
2022-10-31T17:59:15.738Z,95.24
2022-10-31T18:01:45.499Z,95.48
2022-10-31T18:04:13.940Z,95.35
2022-10-31T18:06:42.081Z,95.13
2022-10-31T18:09:10.345Z,95.43
2022-10-31T18:11:38.810Z,95.28
2022-10-31T18:14:07.050Z,95.40
2022-10-31T18:19:13.459Z,95.36
2022-10-31T18:21:41.818Z,95.39
2022-10-31T18:24:10.554Z,95.47
2022-10-31T18:26:39.852Z,95.03
2022-10-31T18:29:08.040Z,95.32
2022-10-31T18:31:36.313Z,95.37
2022-10-31T18:34:04.539Z,95.60
2022-10-31T18:36:34.258Z,95.28
2022-10-31T18:39:03.518Z,95.14
2022-10-31T18:41:31.797Z,95.51
2022-10-31T18:44:00.411Z,95.28
2022-10-31T18:46:29.422Z,95.65
2022-10-31T18:48:57.855Z,95.56
2022-10-31T18:51:26.164Z,95.47
2022-10-31T18:53:56.483Z,95.26
2022-10-31T18:56:25.092Z,95.62
2022-10-31T18:58:53.370Z,95.26
2022-10-31T19:01:22.574Z,95.04
2022-10-31T19:03:54.501Z,95.50
2022-10-31T19:06:22.803Z,95.24
2022-10-31T19:08:51.015Z,95.19
2022-10-31T19:11:21.130Z,95.23
2022-10-31T19:13:49.371Z,95.42
2022-10-31T19:16:18.507Z,95.15
2022-10-31T19:18:47.038Z,95.30
2022-10-31T19:21:16.724Z,95.16
2022-10-31T19:23:45.952Z,94.89
2022-10-31T19:26:14.387Z,95.16
2022-10-31T19:28:44.121Z,95.08
2022-10-31T19:31:12.724Z,94.76
2022-10-31T19:33:41.063Z,94.83
2022-10-31T19:36:10.173Z,94.92
2022-10-31T19:38:39.142Z,94.90
2022-10-31T19:41:09.564Z,94.89
2022-10-31T19:43:37.953Z,94.86
2022-10-31T19:46:13.883Z,94.65
2022-10-31T19:48:50.953Z,94.64
2022-10-31T19:51:20.316Z,94.82
2022-10-31T19:53:49.807Z,94.82
2022-10-31T19:56:19.844Z,94.84
2022-10-31T19:58:48.304Z,94.84
2022-10-31T20:01:19.095Z,95.04
2022-10-31T20:03:48.913Z,94.87
2022-10-31T20:06:18.267Z,94.74
2022-10-31T20:08:46.721Z,94.85
2022-10-31T20:11:15.067Z,95.07
2022-10-31T20:13:43.368Z,95.06
2022-10-31T20:16:12.873Z,94.86
2022-10-31T20:18:42.764Z,95.08
2022-10-31T20:21:12.633Z,94.73
2022-10-31T20:23:41.293Z,94.96
2022-10-31T20:26:10.922Z,94.80
2022-10-31T20:28:43.421Z,94.99
2022-10-31T20:31:13.134Z,94.65
2022-10-31T20:33:43.216Z,94.84
2022-10-31T20:36:11.938Z,94.79
2022-10-31T20:38:40.793Z,94.83
2022-10-31T20:41:10.632Z,94.58
2022-10-31T20:43:39.203Z,94.65
2022-10-31T20:46:08.476Z,94.89
2022-10-31T20:48:36.691Z,94.55
2022-10-31T20:51:08.009Z,94.79
2022-10-31T20:53:36.364Z,94.85
2022-10-31T20:56:07.255Z,94.59
2022-10-31T20:58:36.568Z,94.89
2022-10-31T21:01:05.294Z,94.72
2022-10-31T21:03:36.855Z,94.50
2022-10-31T21:06:06.765Z,95.12
2022-10-31T21:08:35.422Z,94.75
2022-10-31T21:11:08.442Z,94.66
2022-10-31T21:13:40.624Z,94.62
2022-10-31T21:16:10.683Z,94.48
2022-10-31T21:18:39.988Z,94.61
2022-10-31T21:21:10.203Z,94.62
2022-10-31T21:23:38.758Z,94.35
2022-10-31T21:26:07.597Z,94.41
2022-10-31T21:28:36.069Z,94.61
2022-10-31T21:31:07.076Z,94.43
2022-10-31T21:33:35.501Z,94.27
2022-10-31T21:36:04.156Z,94.16
2022-10-31T21:38:34.204Z,94.33
2022-10-31T21:41:03.427Z,94.23
2022-10-31T21:43:31.633Z,94.31
2022-10-31T21:46:03.966Z,94.40
2022-10-31T21:48:33.373Z,94.21
2022-10-31T21:51:03.924Z,94.12
2022-10-31T21:53:53.419Z,94.37
2022-10-31T21:56:22.115Z,94.33
2022-10-31T21:58:50.308Z,94.33
2022-10-31T22:01:19.129Z,94.14
2022-10-31T22:03:47.564Z,94.03
2022-10-31T22:06:16.485Z,94.14
2022-10-31T22:08:46.222Z,94.20
2022-10-31T22:11:15.668Z,94.15
2022-10-31T22:13:44.973Z,94.13
2022-10-31T22:16:14.093Z,94.15
2022-10-31T22:18:42.856Z,94.18
2022-10-31T22:21:11.826Z,94.27
2022-10-31T22:23:40.325Z,94.18
2022-10-31T22:26:14.491Z,94.35
2022-10-31T22:28:43.824Z,94.45
2022-10-31T22:31:13.709Z,94.16
2022-10-31T22:33:42.080Z,94.21
2022-10-31T22:36:11.826Z,94.25
2022-10-31T22:38:40.714Z,94.13
2022-10-31T22:41:11.035Z,94.47
2022-10-31T22:43:39.518Z,94.37
2022-10-31T22:46:09.095Z,94.18
2022-10-31T22:48:38.445Z,94.60
2022-10-31T22:51:06.832Z,94.39
2022-10-31T22:53:35.591Z,93.79
2022-10-31T22:56:04.167Z,94.34
2022-10-31T22:58:34.266Z,94.06
2022-10-31T23:01:07.304Z,94.29
2022-10-31T23:03:35.865Z,94.12
2022-10-31T23:06:05.039Z,94.26
2022-10-31T23:08:35.774Z,94.34
2022-10-31T23:11:04.391Z,94.09
2022-10-31T23:13:43.954Z,94.12
2022-10-31T23:16:13.503Z,94.39
2022-10-31T23:18:50.100Z,94.17
2022-10-31T23:21:33.065Z,93.98
2022-10-31T23:24:01.355Z,93.90
2022-10-31T23:26:39.514Z,94.24
2022-10-31T23:29:09.615Z,93.95
2022-10-31T23:31:38.019Z,94.23
2022-10-31T23:34:06.214Z,93.84
2022-10-31T23:36:34.595Z,94.09
2022-10-31T23:39:02.823Z,94.05
2022-10-31T23:41:31.198Z,94.17
2022-10-31T23:43:59.584Z,94.13
2022-10-31T23:46:29.480Z,94.00
2022-10-31T23:48:57.847Z,93.83
2022-10-31T23:51:26.176Z,93.98
2022-10-31T23:53:54.586Z,93.87
2022-10-31T23:56:22.920Z,93.94
2022-10-31T23:58:51.273Z,93.96
